sensor_id;sensor_type;location;lat;lon;timestamp;pressure;altitude;pressure_sealevel;temperature;humidity
37238;BME280;23129;49.662;8.448;2024-01-27T00:00:59;102584.66;;;3.41;100.00
37238;BME280;23129;49.662;8.448;2024-01-27T00:03:27;102586.34;;;3.39;100.00
37238;BME280;23129;49.662;8.448;2024-01-27T00:05:56;102585.47;;;3.38;100.00
37238;BME280;23129;49.662;8.448;2024-01-27T00:08:25;102582.81;;;3.37;100.00
37238;BME280;23129;49.662;8.448;2024-01-27T00:10:55;102584.56;;;3.38;100.00
37238;BME280;23129;49.662;8.448;2024-01-27T00:13:24;102582.91;;;3.40;100.00
37238;BME280;23129;49.662;8.448;2024-01-27T00:15:52;102582.16;;;3.42;100.00
37238;BME280;23129;49.662;8.448;2024-01-27T00:18:23;102583.03;;;3.43;100.00
37238;BME280;23129;49.662;8.448;2024-01-27T00:20:52;102584.81;;;3.44;100.00
37238;BME280;23129;49.662;8.448;2024-01-27T00:23:21;102582.22;;;3.44;100.00
37238;BME280;23129;49.662;8.448;2024-01-27T00:25:49;102583.78;;;3.40;100.00
37238;BME280;23129;49.662;8.448;2024-01-27T00:28:18;102590.69;;;3.40;100.00
37238;BME280;23129;49.662;8.448;2024-01-27T00:30:47;102590.59;;;3.37;100.00
37238;BME280;23129;49.662;8.448;2024-01-27T00:33:16;102593.13;;;3.35;100.00
37238;BME280;23129;49.662;8.448;2024-01-27T00:35:46;102599.03;;;3.31;100.00
37238;BME280;23129;49.662;8.448;2024-01-27T00:38:15;102592.84;;;3.28;100.00
37238;BME280;23129;49.662;8.448;2024-01-27T00:40:43;102603.09;;;3.25;100.00
37238;BME280;23129;49.662;8.448;2024-01-27T00:43:12;102603.94;;;3.24;100.00
37238;BME280;23129;49.662;8.448;2024-01-27T00:45:40;102599.44;;;3.19;100.00
37238;BME280;23129;49.662;8.448;2024-01-27T00:48:09;102595.94;;;3.17;100.00
37238;BME280;23129;49.662;8.448;2024-01-27T00:50:38;102597.59;;;3.15;100.00
37238;BME280;23129;49.662;8.448;2024-01-27T00:53:08;102600.16;;;3.15;100.00
37238;BME280;23129;49.662;8.448;2024-01-27T00:55:37;102602.66;;;3.12;100.00
37238;BME280;23129;49.662;8.448;2024-01-27T00:58:06;102608.69;;;3.11;100.00
37238;BME280;23129;49.662;8.448;2024-01-27T01:00:35;102595.59;;;3.08;100.00
37238;BME280;23129;49.662;8.448;2024-01-27T01:03:04;102604.06;;;3.04;100.00
37238;BME280;23129;49.662;8.448;2024-01-27T01:05:33;102612.56;;;3.00;100.00
37238;BME280;23129;49.662;8.448;2024-01-27T01:08:01;102615.84;;;2.96;100.00
37238;BME280;23129;49.662;8.448;2024-01-27T01:10:32;102613.00;;;2.90;100.00
37238;BME280;23129;49.662;8.448;2024-01-27T01:13:00;102619.75;;;2.85;100.00
37238;BME280;23129;49.662;8.448;2024-01-27T01:15:29;102622.09;;;2.79;100.00
37238;BME280;23129;49.662;8.448;2024-01-27T01:17:58;102618.44;;;2.73;100.00
37238;BME280;23129;49.662;8.448;2024-01-27T01:20:27;102624.25;;;2.68;100.00
37238;BME280;23129;49.662;8.448;2024-01-27T01:22:57;102629.28;;;2.63;100.00
37238;BME280;23129;49.662;8.448;2024-01-27T01:25:26;102636.88;;;2.60;100.00
37238;BME280;23129;49.662;8.448;2024-01-27T01:27:56;102645.50;;;2.59;100.00
37238;BME280;23129;49.662;8.448;2024-01-27T01:30:24;102648.91;;;2.58;100.00
37238;BME280;23129;49.662;8.448;2024-01-27T01:32:53;102648.81;;;2.55;100.00
37238;BME280;23129;49.662;8.448;2024-01-27T01:35:22;102645.22;;;2.51;100.00
37238;BME280;23129;49.662;8.448;2024-01-27T01:37:51;102650.19;;;2.47;100.00
37238;BME280;23129;49.662;8.448;2024-01-27T01:40:20;102654.34;;;2.43;100.00
37238;BME280;23129;49.662;8.448;2024-01-27T01:42:51;102665.47;;;2.41;100.00
37238;BME280;23129;49.662;8.448;2024-01-27T01:45:21;102666.31;;;2.40;100.00
37238;BME280;23129;49.662;8.448;2024-01-27T01:47:50;102659.28;;;2.37;100.00
37238;BME280;23129;49.662;8.448;2024-01-27T01:50:19;102649.56;;;2.32;100.00
37238;BME280;23129;49.662;8.448;2024-01-27T01:52:49;102650.31;;;2.29;100.00
37238;BME280;23129;49.662;8.448;2024-01-27T01:55:20;102647.53;;;2.24;100.00
37238;BME280;23129;49.662;8.448;2024-01-27T01:57:49;102644.66;;;2.18;100.00
37238;BME280;23129;49.662;8.448;2024-01-27T02:00:18;102647.00;;;2.12;100.00
37238;BME280;23129;49.662;8.448;2024-01-27T02:02:48;102638.19;;;2.07;100.00
37238;BME280;23129;49.662;8.448;2024-01-27T02:05:17;102653.56;;;2.04;100.00
37238;BME280;23129;49.662;8.448;2024-01-27T02:07:45;102658.50;;;1.98;100.00
37238;BME280;23129;49.662;8.448;2024-01-27T02:10:18;102663.53;;;1.95;100.00
37238;BME280;23129;49.662;8.448;2024-01-27T02:12:47;102664.28;;;1.92;100.00
37238;BME280;23129;49.662;8.448;2024-01-27T02:15:15;102661.59;;;1.91;100.00
37238;BME280;23129;49.662;8.448;2024-01-27T02:17:44;102666.78;;;1.91;100.00
37238;BME280;23129;49.662;8.448;2024-01-27T02:20:14;102673.63;;;1.89;100.00
37238;BME280;23129;49.662;8.448;2024-01-27T02:22:43;102675.16;;;1.85;100.00
37238;BME280;23129;49.662;8.448;2024-01-27T02:25:13;102684.44;;;1.80;100.00
37238;BME280;23129;49.662;8.448;2024-01-27T02:27:42;102680.75;;;1.75;100.00
37238;BME280;23129;49.662;8.448;2024-01-27T02:30:11;102690.88;;;1.70;100.00
37238;BME280;23129;49.662;8.448;2024-01-27T02:32:40;102681.22;;;1.66;100.00
37238;BME280;23129;49.662;8.448;2024-01-27T02:35:09;102695.78;;;1.64;100.00
37238;BME280;23129;49.662;8.448;2024-01-27T02:37:38;102676.66;;;1.60;100.00
37238;BME280;23129;49.662;8.448;2024-01-27T02:40:07;102686.13;;;1.60;100.00
37238;BME280;23129;49.662;8.448;2024-01-27T02:42:38;102675.78;;;1.60;100.00
37238;BME280;23129;49.662;8.448;2024-01-27T02:45:09;102676.75;;;1.62;100.00
37238;BME280;23129;49.662;8.448;2024-01-27T02:47:39;102675.78;;;1.60;100.00
37238;BME280;23129;49.662;8.448;2024-01-27T02:50:08;102684.38;;;1.59;100.00
37238;BME280;23129;49.662;8.448;2024-01-27T02:52:37;102689.47;;;1.57;100.00
37238;BME280;23129;49.662;8.448;2024-01-27T02:55:07;102689.31;;;1.54;100.00
37238;BME280;23129;49.662;8.448;2024-01-27T02:57:37;102697.81;;;1.52;100.00
37238;BME280;23129;49.662;8.448;2024-01-27T03:00:06;102692.38;;;1.46;100.00
37238;BME280;23129;49.662;8.448;2024-01-27T03:02:36;102706.59;;;1.36;100.00
37238;BME280;23129;49.662;8.448;2024-01-27T03:05:05;102702.56;;;1.23;100.00
37238;BME280;23129;49.662;8.448;2024-01-27T03:07:35;102704.56;;;1.11;100.00
37238;BME280;23129;49.662;8.448;2024-01-27T03:10:04;102697.31;;;1.04;100.00
37238;BME280;23129;49.662;8.448;2024-01-27T03:12:33;102703.94;;;0.99;100.00
37238;BME280;23129;49.662;8.448;2024-01-27T03:15:04;102708.81;;;0.93;100.00
37238;BME280;23129;49.662;8.448;2024-01-27T03:17:32;102705.16;;;0.87;100.00
37238;BME280;23129;49.662;8.448;2024-01-27T03:20:01;102705.91;;;0.85;100.00
37238;BME280;23129;49.662;8.448;2024-01-27T03:22:30;102708.38;;;0.83;100.00
37238;BME280;23129;49.662;8.448;2024-01-27T03:24:59;102715.19;;;0.81;100.00
37238;BME280;23129;49.662;8.448;2024-01-27T03:27:27;102707.31;;;0.78;100.00
37238;BME280;23129;49.662;8.448;2024-01-27T03:30:00;102720.94;;;0.76;100.00
37238;BME280;23129;49.662;8.448;2024-01-27T03:32:31;102705.34;;;0.74;100.00
37238;BME280;23129;49.662;8.448;2024-01-27T03:35:00;102707.06;;;0.74;100.00
37238;BME280;23129;49.662;8.448;2024-01-27T03:37:29;102705.44;;;0.76;100.00
37238;BME280;23129;49.662;8.448;2024-01-27T03:39:58;102711.50;;;0.76;100.00
37238;BME280;23129;49.662;8.448;2024-01-27T03:42:26;102713.97;;;0.75;100.00
37238;BME280;23129;49.662;8.448;2024-01-27T03:44:55;102711.50;;;0.76;100.00
37238;BME280;23129;49.662;8.448;2024-01-27T03:47:24;102711.50;;;0.76;100.00
37238;BME280;23129;49.662;8.448;2024-01-27T03:49:55;102707.22;;;0.77;100.00
37238;BME280;23129;49.662;8.448;2024-01-27T03:52:24;102710.66;;;0.77;100.00
37238;BME280;23129;49.662;8.448;2024-01-27T03:54:53;102712.53;;;0.80;100.00
37238;BME280;23129;49.662;8.448;2024-01-27T03:57:21;102713.41;;;0.80;100.00
37238;BME280;23129;49.662;8.448;2024-01-27T03:59:50;102713.41;;;0.80;100.00
37238;BME280;23129;49.662;8.448;2024-01-27T04:02:19;102716.06;;;0.82;100.00
37238;BME280;23129;49.662;8.448;2024-01-27T04:04:48;102724.72;;;0.82;100.00
37238;BME280;23129;49.662;8.448;2024-01-27T04:07:18;102713.50;;;0.82;100.00
37238;BME280;23129;49.662;8.448;2024-01-27T04:09:47;102721.25;;;0.82;100.00
37238;BME280;23129;49.662;8.448;2024-01-27T04:12:15;102715.19;;;0.81;100.00
37238;BME280;23129;49.662;8.448;2024-01-27T04:14:44;102721.09;;;0.79;100.00
37238;BME280;23129;49.662;8.448;2024-01-27T04:17:13;102733.19;;;0.80;100.00
37238;BME280;23129;49.662;8.448;2024-01-27T04:19:41;102734.06;;;0.80;100.00
37238;BME280;23129;49.662;8.448;2024-01-27T04:22:10;102731.47;;;0.80;100.00
37238;BME280;23129;49.662;8.448;2024-01-27T04:24:40;102738.31;;;0.78;100.00
37238;BME280;23129;49.662;8.448;2024-01-27T04:27:09;102743.38;;;0.77;100.00
37238;BME280;23129;49.662;8.448;2024-01-27T04:29:38;102740.72;;;0.75;100.00
37238;BME280;23129;49.662;8.448;2024-01-27T04:32:06;102742.34;;;0.73;100.00
37238;BME280;23129;49.662;8.448;2024-01-27T04:34:35;102743.94;;;0.71;100.00
37238;BME280;23129;49.662;8.448;2024-01-27T04:37:04;102747.34;;;0.70;100.00
37238;BME280;23129;49.662;8.448;2024-01-27T04:39:33;102745.66;;;0.71;100.00
37238;BME280;23129;49.662;8.448;2024-01-27T04:42:04;102753.41;;;0.71;100.00
37238;BME280;23129;49.662;8.448;2024-01-27T04:44:33;102752.53;;;0.70;100.00
37238;BME280;23129;49.662;8.448;2024-01-27T04:47:02;102751.63;;;0.70;100.00
37238;BME280;23129;49.662;8.448;2024-01-27T04:49:31;102749.06;;;0.70;100.00
37238;BME280;23129;49.662;8.448;2024-01-27T04:52:00;102751.63;;;0.70;100.00
37238;BME280;23129;49.662;8.448;2024-01-27T04:54:29;102746.53;;;0.71;100.00
37238;BME280;23129;49.662;8.448;2024-01-27T04:56:58;102746.69;;;0.74;100.00
37238;BME280;23129;49.662;8.448;2024-01-27T04:59:28;102750.25;;;0.76;100.00
37238;BME280;23129;49.662;8.448;2024-01-27T05:01:56;102758.13;;;0.79;100.00
37238;BME280;23129;49.662;8.448;2024-01-27T05:04:25;102758.28;;;0.82;100.00
37238;BME280;23129;49.662;8.448;2024-01-27T05:06:54;102756.53;;;0.81;100.00
37238;BME280;23129;49.662;8.448;2024-01-27T05:09:23;102758.13;;;0.79;100.00
37238;BME280;23129;49.662;8.448;2024-01-27T05:11:52;102749.41;;;0.77;100.00
37238;BME280;23129;49.662;8.448;2024-01-27T05:14:21;102751.06;;;0.75;100.00
37238;BME280;23129;49.662;8.448;2024-01-27T05:16:51;102750.91;;;0.72;100.00
37238;BME280;23129;49.662;8.448;2024-01-27T05:19:20;102745.75;;;0.72;100.00
37238;BME280;23129;49.662;8.448;2024-01-27T05:21:50;102750.91;;;0.72;100.00
37238;BME280;23129;49.662;8.448;2024-01-27T05:24:18;102755.16;;;0.72;100.00
37238;BME280;23129;49.662;8.448;2024-01-27T05:26:47;102762.84;;;0.70;100.00
37238;BME280;23129;49.662;8.448;2024-01-27T05:29:15;102765.28;;;0.67;100.00
37238;BME280;23129;49.662;8.448;2024-01-27T05:31:44;102769.47;;;0.65;100.00
37238;BME280;23129;49.662;8.448;2024-01-27T05:34:14;102765.59;;;0.57;100.00
37238;BME280;23129;49.662;8.448;2024-01-27T05:36:43;102768.69;;;0.50;100.00
37238;BME280;23129;49.662;8.448;2024-01-27T05:39:12;102773.72;;;0.47;100.00
37238;BME280;23129;49.662;8.448;2024-01-27T05:41:41;102771.69;;;0.41;100.00
37238;BME280;23129;49.662;8.448;2024-01-27T05:44:09;102783.56;;;0.37;100.00
37238;BME280;23129;49.662;8.448;2024-01-27T05:46:38;102791.16;;;0.34;100.00
37238;BME280;23129;49.662;8.448;2024-01-27T05:49:06;102793.41;;;0.28;100.00
37238;BME280;23129;49.662;8.448;2024-01-27T05:51:37;102787.13;;;0.23;100.00
37238;BME280;23129;49.662;8.448;2024-01-27T05:54:05;102770.50;;;0.18;100.00
37238;BME280;23129;49.662;8.448;2024-01-27T05:56:36;102779.06;;;0.17;100.00
37238;BME280;23129;49.662;8.448;2024-01-27T05:59:05;102777.28;;;0.16;100.00
37238;BME280;23129;49.662;8.448;2024-01-27T06:01:34;102784.16;;;0.15;100.00
37238;BME280;23129;49.662;8.448;2024-01-27T06:04:03;102790.81;;;0.12;100.00
37238;BME280;23129;49.662;8.448;2024-01-27T06:06:32;102788.91;;;0.08;100.00
37238;BME280;23129;49.662;8.448;2024-01-27T06:09:02;102785.34;;;0.06;100.00
37238;BME280;23129;49.662;8.448;2024-01-27T06:11:32;102786.16;;;0.05;100.00
37238;BME280;23129;49.662;8.448;2024-01-27T06:14:00;102802.44;;;0.04;100.00
37238;BME280;23129;49.662;8.448;2024-01-27T06:16:29;102802.28;;;0.01;100.00
37238;BME280;23129;49.662;8.448;2024-01-27T06:18:58;102805.66;;;-0.01;100.00
37238;BME280;23129;49.662;8.448;2024-01-27T06:21:27;102809.06;;;-0.02;100.00
37238;BME280;23129;49.662;8.448;2024-01-27T06:23:56;102809.06;;;-0.02;100.00
37238;BME280;23129;49.662;8.448;2024-01-27T06:26:26;102800.50;;;-0.01;100.00
37238;BME280;23129;49.662;8.448;2024-01-27T06:28:55;102801.41;;;0.00;100.00
37238;BME280;23129;49.662;8.448;2024-01-27T06:31:24;102803.91;;;-0.02;100.00
37238;BME280;23129;49.662;8.448;2024-01-27T06:33:53;102812.44;;;-0.03;100.00
37238;BME280;23129;49.662;8.448;2024-01-27T06:36:21;102816.69;;;-0.03;100.00
37238;BME280;23129;49.662;8.448;2024-01-27T06:38:52;102815.81;;;-0.04;100.00
37238;BME280;23129;49.662;8.448;2024-01-27T06:41:22;102810.59;;;-0.05;100.00
37238;BME280;23129;49.662;8.448;2024-01-27T06:43:52;102813.94;;;-0.06;100.00
37238;BME280;23129;49.662;8.448;2024-01-27T06:46:21;102802.69;;;-0.08;100.00
37238;BME280;23129;49.662;8.448;2024-01-27T06:48:50;102798.25;;;-0.11;100.00
37238;BME280;23129;49.662;8.448;2024-01-27T06:51:18;102812.75;;;-0.13;100.00
37238;BME280;23129;49.662;8.448;2024-01-27T06:53:47;102811.78;;;-0.15;100.00
37238;BME280;23129;49.662;8.448;2024-01-27T06:56:16;102810.88;;;-0.15;100.00
37238;BME280;23129;49.662;8.448;2024-01-27T06:58:45;102803.94;;;-0.16;100.00
37238;BME280;23129;49.662;8.448;2024-01-27T07:01:15;102801.31;;;-0.18;100.00
37238;BME280;23129;49.662;8.448;2024-01-27T07:03:43;102794.34;;;-0.19;100.00
37238;BME280;23129;49.662;8.448;2024-01-27T07:06:13;102802.91;;;-0.20;100.00
37238;BME280;23129;49.662;8.448;2024-01-27T07:08:41;102805.56;;;-0.18;100.00
37238;BME280;23129;49.662;8.448;2024-01-27T07:11:10;102805.56;;;-0.18;100.00
37238;BME280;23129;49.662;8.448;2024-01-27T07:13:40;102813.38;;;-0.17;100.00
37238;BME280;23129;49.662;8.448;2024-01-27T07:16:09;102810.88;;;-0.15;100.00
37238;BME280;23129;49.662;8.448;2024-01-27T07:18:39;102810.97;;;-0.14;100.00
37238;BME280;23129;49.662;8.448;2024-01-27T07:21:08;102813.56;;;-0.14;100.00
37238;BME280;23129;49.662;8.448;2024-01-27T07:23:36;102814.53;;;-0.12;100.00
37238;BME280;23129;49.662;8.448;2024-01-27T07:26:07;102810.31;;;-0.10;100.00
37238;BME280;23129;49.662;8.448;2024-01-27T07:28:36;102806.97;;;-0.09;100.00
37238;BME280;23129;49.662;8.448;2024-01-27T07:31:05;102808.88;;;-0.05;100.00
37238;BME280;23129;49.662;8.448;2024-01-27T07:33:34;102819.38;;;-0.02;100.00
37238;BME280;23129;49.662;8.448;2024-01-27T07:36:05;102816.13;;;0.03;100.00
37238;BME280;23129;49.662;8.448;2024-01-27T07:38:33;102812.13;;;0.08;100.00
37238;BME280;23129;49.662;8.448;2024-01-27T07:41:02;102814.03;;;0.12;100.00
37238;BME280;23129;49.662;8.448;2024-01-27T07:43:31;102807.53;;;0.18;100.00
37238;BME280;23129;49.662;8.448;2024-01-27T07:45:59;102815.44;;;0.21;100.00
37238;BME280;23129;49.662;8.448;2024-01-27T07:48:28;102820.78;;;0.25;100.00
37238;BME280;23129;49.662;8.448;2024-01-27T07:50:57;102818.41;;;0.29;100.00
37238;BME280;23129;49.662;8.448;2024-01-27T07:53:28;102819.56;;;0.34;100.00
37238;BME280;23129;49.662;8.448;2024-01-27T07:55:57;102818.09;;;0.39;100.00
37238;BME280;23129;49.662;8.448;2024-01-27T07:58:26;102821.78;;;0.44;100.00
37238;BME280;23129;49.662;8.448;2024-01-27T08:00:55;102816.00;;;0.49;100.00
37238;BME280;23129;49.662;8.448;2024-01-27T08:03:24;102820.50;;;0.53;100.00
37238;BME280;23129;49.662;8.448;2024-01-27T08:05:53;102819.06;;;0.58;100.00
37238;BME280;23129;49.662;8.448;2024-01-27T08:08:23;102809.91;;;0.64;100.00
37238;BME280;23129;49.662;8.448;2024-01-27T08:10:53;102818.84;;;0.71;100.00
37238;BME280;23129;49.662;8.448;2024-01-27T08:13:22;102826.91;;;0.77;100.00
37238;BME280;23129;49.662;8.448;2024-01-27T08:15:50;102829.00;;;0.84;100.00
37238;BME280;23129;49.662;8.448;2024-01-27T08:18:19;102821.63;;;0.92;100.00
37238;BME280;23129;49.662;8.448;2024-01-27T08:20:48;102814.28;;;1.00;100.00
37238;BME280;23129;49.662;8.448;2024-01-27T08:23:16;102810.44;;;1.09;100.00
37238;BME280;23129;49.662;8.448;2024-01-27T08:25:45;102803.06;;;1.17;100.00
37238;BME280;23129;49.662;8.448;2024-01-27T08:28:18;102815.78;;;1.30;100.00
37238;BME280;23129;49.662;8.448;2024-01-27T08:30:47;102822.41;;;1.43;100.00
37238;BME280;23129;49.662;8.448;2024-01-27T08:33:15;102817.06;;;1.58;100.00
37238;BME280;23129;49.662;8.448;2024-01-27T08:35:46;102819.72;;;1.77;100.00
37238;BME280;23129;49.662;8.448;2024-01-27T08:38:15;102821.53;;;2.17;100.00
37238;BME280;23129;49.662;8.448;2024-01-27T08:40:44;102825.75;;;2.73;100.00
37238;BME280;23129;49.662;8.448;2024-01-27T08:43:12;102822.03;;;3.30;100.00
37238;BME280;23129;49.662;8.448;2024-01-27T08:45:43;102811.31;;;3.88;100.00
37238;BME280;23129;49.662;8.448;2024-01-27T08:48:12;102825.41;;;4.41;100.00
37238;BME280;23129;49.662;8.448;2024-01-27T08:50:41;102811.31;;;4.84;100.00
37238;BME280;23129;49.662;8.448;2024-01-27T08:53:09;102825.75;;;5.27;100.00
37238;BME280;23129;49.662;8.448;2024-01-27T08:55:38;102817.53;;;5.69;100.00
37238;BME280;23129;49.662;8.448;2024-01-27T08:58:06;102815.28;;;6.10;100.00
37238;BME280;23129;49.662;8.448;2024-01-27T09:00:35;102832.78;;;6.44;100.00
37238;BME280;23129;49.662;8.448;2024-01-27T09:03:05;102816.13;;;6.71;100.00
37238;BME280;23129;49.662;8.448;2024-01-27T09:05:33;102836.75;;;6.95;100.00
37238;BME280;23129;49.662;8.448;2024-01-27T09:08:02;102827.13;;;7.27;100.00
37238;BME280;23129;49.662;8.448;2024-01-27T09:10:31;102823.56;;;7.61;100.00
37238;BME280;23129;49.662;8.448;2024-01-27T09:12:59;102836.34;;;7.88;100.00
37238;BME280;23129;49.662;8.448;2024-01-27T09:15:28;102835.06;;;8.09;100.00
37238;BME280;23129;49.662;8.448;2024-01-27T09:17:57;102841.63;;;8.32;100.00
37238;BME280;23129;49.662;8.448;2024-01-27T09:20:27;102835.06;;;8.51;100.00
37238;BME280;23129;49.662;8.448;2024-01-27T09:22:56;102840.72;;;8.74;100.00
37238;BME280;23129;49.662;8.448;2024-01-27T09:25:24;102844.72;;;9.02;100.00
37238;BME280;23129;49.662;8.448;2024-01-27T09:27:55;102845.16;;;9.30;100.00
37238;BME280;23129;49.662;8.448;2024-01-27T09:30:24;102843.69;;;9.47;100.00
37238;BME280;23129;49.662;8.448;2024-01-27T09:32:56;102846.63;;;9.69;100.00
37238;BME280;23129;49.662;8.448;2024-01-27T09:35:26;102846.13;;;9.94;100.00
37238;BME280;23129;49.662;8.448;2024-01-27T09:37:55;102842.91;;;10.17;100.00
37238;BME280;23129;49.662;8.448;2024-01-27T09:40:24;102851.13;;;10.38;100.00
37238;BME280;23129;49.662;8.448;2024-01-27T09:42:53;102860.09;;;10.60;100.00
37238;BME280;23129;49.662;8.448;2024-01-27T09:45:25;102857.63;;;10.74;100.00
37238;BME280;23129;49.662;8.448;2024-01-27T09:47:57;102850.69;;;10.82;100.00
37238;BME280;23129;49.662;8.448;2024-01-27T09:50:28;102855.16;;;10.91;100.00
37238;BME280;23129;49.662;8.448;2024-01-27T09:52:58;102851.75;;;11.03;100.00
37238;BME280;23129;49.662;8.448;2024-01-27T09:55:28;102843.97;;;11.12;100.00
37238;BME280;23129;49.662;8.448;2024-01-27T09:57:56;102838.84;;;11.26;100.00
37238;BME280;23129;49.662;8.448;2024-01-27T10:00:25;102845.09;;;11.40;100.00
37238;BME280;23129;49.662;8.448;2024-01-27T10:02:55;102853.94;;;11.56;100.00
37238;BME280;23129;49.662;8.448;2024-01-27T10:05:26;102836.50;;;11.67;100.00
37238;BME280;23129;49.662;8.448;2024-01-27T10:07:55;102828.66;;;11.73;100.00
37238;BME280;23129;49.662;8.448;2024-01-27T10:10:24;102824.28;;;11.77;100.00
37238;BME280;23129;49.662;8.448;2024-01-27T10:12:53;102825.28;;;11.91;100.00
37238;BME280;23129;49.662;8.448;2024-01-27T10:15:26;102815.66;;;12.02;100.00
37238;BME280;23129;49.662;8.448;2024-01-27T10:18:05;102816.59;;;12.12;100.00
37238;BME280;23129;49.662;8.448;2024-01-27T10:20:36;102821.91;;;12.21;100.00
37238;BME280;23129;49.662;8.448;2024-01-27T10:23:12;102823.66;;;12.28;100.00
37238;BME280;23129;49.662;8.448;2024-01-27T10:25:42;102819.34;;;12.49;100.00
37238;BME280;23129;49.662;8.448;2024-01-27T10:28:11;102824.63;;;12.70;100.00
37238;BME280;23129;49.662;8.448;2024-01-27T10:30:40;102820.28;;;12.91;100.00
37238;BME280;23129;49.662;8.448;2024-01-27T10:33:09;102814.13;;;13.04;100.00
37238;BME280;23129;49.662;8.448;2024-01-27T10:35:40;102810.63;;;13.17;100.00
37238;BME280;23129;49.662;8.448;2024-01-27T10:38:08;102799.22;;;13.34;100.00
37238;BME280;23129;49.662;8.448;2024-01-27T10:40:38;102806.22;;;13.50;100.00
37238;BME280;23129;49.662;8.448;2024-01-27T10:43:08;102812.34;;;13.63;100.00
37238;BME280;23129;49.662;8.448;2024-01-27T10:45:39;102796.47;;;13.75;100.00
37238;BME280;23129;49.662;8.448;2024-01-27T10:48:09;102793.78;;;13.92;100.00
37238;BME280;23129;49.662;8.448;2024-01-27T10:50:41;102799.03;;;14.04;100.00
37238;BME280;23129;49.662;8.448;2024-01-27T10:53:22;102805.09;;;14.17;100.00
37238;BME280;23129;49.662;8.448;2024-01-27T10:55:53;102796.22;;;14.35;100.00
37238;BME280;23129;49.662;8.448;2024-01-27T10:58:23;102782.06;;;14.51;100.00
37238;BME280;23129;49.662;8.448;2024-01-27T11:00:53;102785.50;;;14.63;100.00
37238;BME280;23129;49.662;8.448;2024-01-27T11:03:23;102785.44;;;14.75;100.00
37238;BME280;23129;49.662;8.448;2024-01-27T11:05:55;102775.66;;;14.84;100.00
37238;BME280;23129;49.662;8.448;2024-01-27T11:08:25;102772.91;;;14.97;100.00
37238;BME280;23129;49.662;8.448;2024-01-27T11:10:57;102774.66;;;14.99;100.00
37238;BME280;23129;49.662;8.448;2024-01-27T11:13:28;102787.00;;;14.99;100.00
37238;BME280;23129;49.662;8.448;2024-01-27T11:15:57;102785.31;;;14.89;100.00
37238;BME280;23129;49.662;8.448;2024-01-27T11:18:27;102775.63;;;14.86;100.00
37238;BME280;23129;49.662;8.448;2024-01-27T11:20:59;102779.06;;;14.97;100.00
37238;BME280;23129;49.662;8.448;2024-01-27T11:23:35;102778.25;;;14.89;100.00
37238;BME280;23129;49.662;8.448;2024-01-27T11:26:05;102767.72;;;14.88;100.00
37238;BME280;23129;49.662;8.448;2024-01-27T11:28:34;102765.13;;;14.80;100.00
37238;BME280;23129;49.662;8.448;2024-01-27T11:31:07;102772.28;;;14.66;100.00
37238;BME280;23129;49.662;8.448;2024-01-27T11:33:41;102767.00;;;14.63;100.00
37238;BME280;23129;49.662;8.448;2024-01-27T11:36:21;102773.34;;;14.34;100.00
37238;BME280;23129;49.662;8.448;2024-01-27T11:38:51;102774.16;;;14.45;100.00
37238;BME280;23129;49.662;8.448;2024-01-27T11:41:24;102768.81;;;14.60;100.00
37238;BME280;23129;49.662;8.448;2024-01-27T11:43:54;102766.03;;;14.79;100.00
37238;BME280;23129;49.662;8.448;2024-01-27T11:46:23;102755.31;;;14.94;100.00
37238;BME280;23129;49.662;8.448;2024-01-27T11:48:52;102753.50;;;14.99;100.00
37238;BME280;23129;49.662;8.448;2024-01-27T11:51:22;102752.50;;;15.13;100.00
37238;BME280;23129;49.662;8.448;2024-01-27T11:53:52;102756.00;;;15.15;100.00
37238;BME280;23129;49.662;8.448;2024-01-27T11:56:21;102750.69;;;15.18;100.00
37238;BME280;23129;49.662;8.448;2024-01-27T11:58:50;102748.97;;;15.12;100.00
37238;BME280;23129;49.662;8.448;2024-01-27T12:01:18;102745.41;;;15.18;100.00
37238;BME280;23129;49.662;8.448;2024-01-27T12:03:47;102745.28;;;15.30;100.00
37238;BME280;23129;49.662;8.448;2024-01-27T12:06:17;102745.25;;;15.33;100.00
37238;BME280;23129;49.662;8.448;2024-01-27T12:08:47;102742.38;;;15.51;100.00
37238;BME280;23129;49.662;8.448;2024-01-27T12:11:17;102737.78;;;15.72;100.00
37238;BME280;23129;49.662;8.448;2024-01-27T12:13:51;102739.31;;;15.91;100.00
37238;BME280;23129;49.662;8.448;2024-01-27T12:16:21;102738.28;;;16.00;100.00
37238;BME280;23129;49.662;8.448;2024-01-27T12:18:52;102744.59;;;15.91;100.00
37238;BME280;23129;49.662;8.448;2024-01-27T12:21:22;102746.38;;;15.88;100.00
37238;BME280;23129;49.662;8.448;2024-01-27T12:23:54;102751.84;;;15.77;100.00
37238;BME280;23129;49.662;8.448;2024-01-27T12:26:27;102741.38;;;15.68;100.00
37238;BME280;23129;49.662;8.448;2024-01-27T12:28:57;102736.78;;;15.79;100.00
37238;BME280;23129;49.662;8.448;2024-01-27T12:31:27;102750.03;;;15.79;100.00
37238;BME280;23129;49.662;8.448;2024-01-27T12:33:56;102734.06;;;15.85;100.00
37238;BME280;23129;49.662;8.448;2024-01-27T12:36:27;102737.41;;;16.00;100.00
37238;BME280;23129;49.662;8.448;2024-01-27T12:38:58;102741.09;;;15.89;100.00
37238;BME280;23129;49.662;8.448;2024-01-27T12:41:28;102748.28;;;15.78;100.00
37238;BME280;23129;49.662;8.448;2024-01-27T12:43:58;102750.13;;;15.70;100.00
37238;BME280;23129;49.662;8.448;2024-01-27T12:46:27;102736.81;;;15.76;100.00
37238;BME280;23129;49.662;8.448;2024-01-27T12:48:56;102749.19;;;15.77;100.00
37238;BME280;23129;49.662;8.448;2024-01-27T12:51:25;102745.97;;;15.47;100.00
37238;BME280;23129;49.662;8.448;2024-01-27T12:53:54;102743.56;;;15.26;100.00
37238;BME280;23129;49.662;8.448;2024-01-27T12:56:24;102733.00;;;15.26;100.00